createdAt,value
2018-03-07T00:00:36.358Z,985.91
2018-03-07T00:01:36.370Z,985.91
2018-03-07T00:02:36.367Z,985.97
2018-03-07T00:03:57.400Z,985.94
2018-03-07T00:04:36.395Z,985.97
2018-03-07T00:05:36.403Z,986.00
2018-03-07T00:06:36.418Z,985.98
2018-03-07T00:07:36.418Z,986.00
2018-03-07T00:08:36.422Z,986.03
2018-03-07T00:09:57.445Z,986.04
2018-03-07T00:10:36.447Z,986.02
2018-03-07T00:11:36.470Z,986.03
2018-03-07T00:12:36.547Z,986.05
2018-03-07T00:13:36.518Z,986.01
2018-03-07T00:14:36.477Z,986.02
2018-03-07T00:15:57.497Z,985.97
2018-03-07T00:16:36.492Z,986.00
2018-03-07T00:17:36.509Z,985.98
2018-03-07T00:18:36.523Z,985.98
2018-03-07T00:19:36.528Z,985.97
2018-03-07T00:20:36.536Z,985.99
2018-03-07T00:21:57.560Z,985.99
2018-03-07T00:22:36.550Z,986.03
2018-03-07T00:23:36.593Z,985.98
2018-03-07T00:24:36.570Z,985.99
2018-03-07T00:25:36.595Z,985.98
2018-03-07T00:26:36.581Z,986.04
2018-03-07T00:27:57.608Z,986.02
2018-03-07T00:28:36.600Z,986.00
2018-03-07T00:29:36.617Z,986.00
2018-03-07T00:30:36.623Z,985.99
2018-03-07T00:31:36.633Z,986.02
2018-03-07T00:32:36.639Z,986.00
2018-03-07T00:33:57.652Z,985.98
2018-03-07T00:34:36.651Z,985.97
2018-03-07T00:35:37.493Z,985.95
2018-03-07T00:36:36.676Z,985.99
2018-03-07T00:37:36.680Z,985.95
2018-03-07T00:38:36.694Z,985.95
2018-03-07T00:39:57.713Z,985.98
2018-03-07T00:40:36.708Z,985.94
2018-03-07T00:41:36.720Z,985.95
2018-03-07T00:42:36.735Z,985.94
2018-03-07T00:43:36.742Z,985.93
2018-03-07T00:44:36.748Z,985.93
2018-03-07T00:45:57.780Z,985.95
2018-03-07T00:46:36.757Z,985.99
2018-03-07T00:47:36.777Z,985.96
2018-03-07T00:48:36.776Z,985.94
2018-03-07T00:49:36.784Z,985.95
2018-03-07T00:50:36.808Z,985.93
2018-03-07T00:51:57.813Z,985.91
2018-03-07T00:52:36.808Z,985.92
2018-03-07T00:53:36.824Z,985.93
2018-03-07T00:54:36.833Z,985.99
2018-03-07T00:55:36.835Z,985.96
2018-03-07T00:56:36.861Z,985.98
2018-03-07T00:57:57.870Z,985.96
2018-03-07T00:58:36.871Z,985.99
2018-03-07T00:59:36.886Z,985.98
2018-03-07T01:00:36.942Z,985.97
2018-03-07T01:01:36.890Z,985.97
2018-03-07T01:02:36.900Z,985.98
2018-03-07T01:03:57.920Z,985.99
2018-03-07T01:04:36.916Z,985.99
2018-03-07T01:05:36.923Z,986.00
2018-03-07T01:06:36.933Z,986.00
2018-03-07T01:07:36.948Z,986.03
2018-03-07T01:08:36.972Z,986.04
2018-03-07T01:09:57.980Z,986.05
2018-03-07T01:10:36.997Z,986.05
2018-03-07T01:11:36.992Z,986.02
2018-03-07T01:12:36.992Z,986.03
2018-03-07T01:13:37.053Z,986.01
2018-03-07T01:14:37.010Z,986.00
2018-03-07T01:15:58.034Z,986.01
2018-03-07T01:16:37.024Z,986.01
2018-03-07T01:17:37.041Z,986.01
2018-03-07T01:18:37.039Z,986.01
2018-03-07T01:19:37.046Z,986.04
2018-03-07T01:20:37.063Z,986.04
2018-03-07T01:21:58.080Z,986.06
2018-03-07T01:22:37.084Z,986.05
2018-03-07T01:23:37.110Z,986.09
2018-03-07T01:24:37.102Z,986.05
2018-03-07T01:25:37.102Z,986.05
2018-03-07T01:26:37.119Z,986.04
2018-03-07T01:27:58.241Z,986.03
2018-03-07T01:28:37.129Z,986.08
2018-03-07T01:29:37.137Z,986.04
2018-03-07T01:30:37.151Z,986.08
2018-03-07T01:31:37.175Z,986.05
2018-03-07T01:32:37.159Z,986.09
2018-03-07T01:33:58.181Z,986.05
2018-03-07T01:34:37.180Z,986.03
2018-03-07T01:35:37.191Z,986.07
2018-03-07T01:36:37.235Z,986.00
2018-03-07T01:37:37.206Z,986.02
2018-03-07T01:38:37.225Z,986.05
2018-03-07T01:39:58.233Z,986.01
2018-03-07T01:40:37.237Z,985.98
2018-03-07T01:41:37.273Z,986.03
2018-03-07T01:42:37.249Z,986.00
2018-03-07T01:43:37.264Z,986.01
2018-03-07T01:44:37.280Z,985.98
2018-03-07T01:45:58.297Z,985.98
2018-03-07T01:46:37.321Z,985.97
2018-03-07T01:47:37.303Z,986.00
2018-03-07T01:48:37.305Z,985.98
2018-03-07T01:49:37.315Z,985.99
2018-03-07T01:50:37.321Z,985.98
2018-03-07T01:51:58.333Z,985.97
2018-03-07T01:52:37.345Z,985.94
2018-03-07T01:53:37.363Z,985.90
2018-03-07T01:54:37.351Z,985.91
2018-03-07T01:55:37.361Z,985.83
2018-03-07T01:56:37.390Z,985.88
2018-03-07T01:57:58.401Z,985.90
2018-03-07T01:58:37.394Z,985.88
2018-03-07T01:59:37.403Z,985.86
2018-03-07T02:00:37.410Z,985.86
2018-03-07T02:01:37.535Z,985.86
2018-03-07T02:02:37.429Z,985.85
2018-03-07T02:03:58.447Z,985.85
2018-03-07T02:04:37.447Z,985.80
2018-03-07T02:05:37.462Z,985.83
2018-03-07T02:06:37.461Z,985.80
2018-03-07T02:07:37.476Z,985.79
2018-03-07T02:08:37.495Z,985.76
2018-03-07T02:09:58.502Z,985.75
2018-03-07T02:10:37.493Z,985.79
2018-03-07T02:11:37.578Z,985.76
2018-03-07T02:12:37.516Z,985.77
2018-03-07T02:13:37.520Z,985.74
2018-03-07T02:14:37.541Z,985.73
2018-03-07T02:15:58.572Z,985.74
2018-03-07T02:16:37.552Z,985.72
2018-03-07T02:17:37.558Z,985.72
2018-03-07T02:18:37.579Z,985.72
2018-03-07T02:19:37.581Z,985.75
2018-03-07T02:20:37.580Z,985.75
2018-03-07T02:21:58.606Z,985.75
2018-03-07T02:22:37.597Z,985.78
2018-03-07T02:23:37.606Z,985.76
2018-03-07T02:24:37.668Z,985.74
2018-03-07T02:25:37.634Z,985.73
2018-03-07T02:26:37.636Z,985.74
2018-03-07T02:27:58.668Z,985.75
2018-03-07T02:28:37.646Z,985.75
2018-03-07T02:29:37.658Z,985.74
2018-03-07T02:30:37.666Z,985.75
2018-03-07T02:31:37.682Z,985.76
2018-03-07T02:32:37.689Z,985.74
2018-03-07T02:33:58.736Z,985.75
2018-03-07T02:34:37.810Z,985.73
2018-03-07T02:35:37.720Z,985.73
2018-03-07T02:36:37.716Z,985.72
2018-03-07T02:37:37.729Z,985.73
2018-03-07T02:38:37.735Z,985.71
2018-03-07T02:39:58.753Z,985.72
2018-03-07T02:40:37.757Z,985.67
2018-03-07T02:41:37.761Z,985.71
2018-03-07T02:42:37.771Z,985.74
2018-03-07T02:43:37.800Z,985.69
2018-03-07T02:44:37.793Z,985.69
2018-03-07T02:45:58.813Z,985.70
2018-03-07T02:46:37.816Z,985.70
2018-03-07T02:47:37.813Z,985.69
2018-03-07T02:48:37.822Z,985.68
2018-03-07T02:49:37.954Z,985.70
2018-03-07T02:50:37.842Z,985.67
2018-03-07T02:51:58.858Z,985.70
2018-03-07T02:52:37.859Z,985.68
2018-03-07T02:53:37.865Z,985.69
2018-03-07T02:54:37.882Z,985.72
2018-03-07T02:55:37.877Z,985.69
2018-03-07T02:56:37.896Z,985.71
2018-03-07T02:57:58.922Z,985.67
2018-03-07T02:58:37.903Z,985.70
2018-03-07T02:59:37.917Z,985.72
2018-03-07T03:00:37.927Z,985.74
2018-03-07T03:01:37.949Z,985.73
2018-03-07T03:02:37.954Z,985.72
2018-03-07T03:03:59.068Z,985.73
2018-03-07T03:04:37.958Z,985.77
2018-03-07T03:05:37.968Z,985.76
2018-03-07T03:06:37.978Z,985.75
2018-03-07T03:07:37.983Z,985.78
2018-03-07T03:08:37.990Z,985.77
2018-03-07T03:09:59.010Z,985.78
2018-03-07T03:10:38.009Z,985.78
2018-03-07T03:11:38.019Z,985.79
2018-03-07T03:12:38.039Z,985.77
2018-03-07T03:13:38.038Z,985.80
2018-03-07T03:14:38.046Z,985.80
2018-03-07T03:15:59.061Z,985.80
2018-03-07T03:16:38.061Z,985.79
2018-03-07T03:17:38.076Z,985.77
2018-03-07T03:18:38.083Z,985.76
2018-03-07T03:19:38.087Z,985.78
2018-03-07T03:20:38.096Z,985.75
2018-03-07T03:21:59.141Z,985.71
2018-03-07T03:22:38.156Z,985.73
2018-03-07T03:23:38.120Z,985.69
2018-03-07T03:24:38.129Z,985.68
2018-03-07T03:25:38.146Z,985.69
2018-03-07T03:26:38.144Z,985.67
2018-03-07T03:27:59.160Z,985.68
2018-03-07T03:28:38.162Z,985.70
2018-03-07T03:29:38.176Z,985.69
2018-03-07T03:30:38.183Z,985.73
2018-03-07T03:31:38.190Z,985.76
2018-03-07T03:32:38.192Z,985.79
2018-03-07T03:33:59.220Z,985.78
2018-03-07T03:34:38.215Z,985.79
2018-03-07T03:35:38.218Z,985.84
2018-03-07T03:36:38.230Z,985.84
2018-03-07T03:37:38.249Z,985.86
2018-03-07T03:38:38.249Z,985.84
2018-03-07T03:39:59.323Z,985.83
2018-03-07T03:40:38.299Z,985.83
2018-03-07T03:41:38.275Z,985.85
2018-03-07T03:42:38.274Z,985.84
2018-03-07T03:43:38.301Z,985.88
2018-03-07T03:44:38.301Z,985.90
2018-03-07T03:45:59.311Z,985.91
2018-03-07T03:46:38.317Z,985.91
2018-03-07T03:47:38.322Z,985.92
2018-03-07T03:48:38.337Z,985.90
2018-03-07T03:49:38.339Z,985.91
2018-03-07T03:50:38.416Z,985.92
2018-03-07T03:51:59.371Z,985.91
2018-03-07T03:52:38.362Z,985.88
2018-03-07T03:53:38.380Z,985.88
2018-03-07T03:54:38.377Z,985.85
2018-03-07T03:55:38.384Z,985.86
2018-03-07T03:56:38.393Z,985.88
2018-03-07T03:57:59.414Z,985.86
2018-03-07T03:58:38.408Z,985.89
2018-03-07T03:59:38.413Z,985.90
2018-03-07T04:00:38.520Z,985.89
2018-03-07T04:01:38.432Z,985.89
2018-03-07T04:02:38.439Z,985.86
2018-03-07T04:03:59.458Z,985.93
2018-03-07T04:04:38.463Z,985.89
2018-03-07T04:05:38.464Z,985.90
2018-03-07T04:06:38.476Z,985.91
2018-03-07T04:07:38.485Z,985.88
2018-03-07T04:08:38.489Z,985.91
2018-03-07T04:09:59.594Z,985.98
2018-03-07T04:10:38.506Z,985.92
2018-03-07T04:11:38.509Z,985.95
2018-03-07T04:12:38.521Z,985.94
2018-03-07T04:13:38.610Z,985.96
2018-03-07T04:14:38.549Z,985.99
2018-03-07T04:15:59.554Z,985.96
2018-03-07T04:16:38.570Z,985.94
2018-03-07T04:17:38.572Z,986.00
2018-03-07T04:18:38.588Z,985.98
2018-03-07T04:19:38.581Z,985.97
2018-03-07T04:20:38.586Z,986.00
2018-03-07T04:21:59.606Z,985.99
2018-03-07T04:22:38.599Z,986.00
2018-03-07T04:23:38.610Z,985.99
2018-03-07T04:24:38.618Z,986.00
2018-03-07T04:25:38.624Z,986.01
2018-03-07T04:26:38.633Z,986.04
2018-03-07T04:27:59.651Z,986.01
2018-03-07T04:28:38.713Z,986.01
2018-03-07T04:29:38.657Z,986.03
2018-03-07T04:30:38.667Z,986.04
2018-03-07T04:31:38.672Z,986.02
2018-03-07T04:32:38.684Z,986.04
2018-03-07T04:33:59.705Z,986.03
2018-03-07T04:34:38.699Z,986.04
2018-03-07T04:35:38.705Z,986.10
2018-03-07T04:36:38.713Z,986.10
2018-03-07T04:37:38.727Z,986.11
2018-03-07T04:38:38.854Z,986.12
2018-03-07T04:39:59.753Z,986.14
2018-03-07T04:40:38.769Z,986.18
2018-03-07T04:41:38.753Z,986.17
2018-03-07T04:42:38.765Z,986.17
2018-03-07T04:43:38.771Z,986.16
2018-03-07T04:44:38.777Z,986.19
2018-03-07T04:45:59.795Z,986.20
2018-03-07T04:46:38.792Z,986.19
2018-03-07T04:47:38.801Z,986.19
2018-03-07T04:48:38.817Z,986.14
2018-03-07T04:49:38.821Z,986.15
2018-03-07T04:50:38.823Z,986.16
2018-03-07T04:51:59.845Z,986.20
2018-03-07T04:52:38.849Z,986.18
2018-03-07T04:53:38.868Z,986.21
2018-03-07T04:54:38.858Z,986.18
2018-03-07T04:55:38.866Z,986.18
2018-03-07T04:56:38.902Z,986.22
2018-03-07T04:57:59.903Z,986.23
2018-03-07T04:58:38.914Z,986.21
2018-03-07T04:59:38.907Z,986.21
2018-03-07T05:00:38.916Z,986.23
2018-03-07T05:01:38.975Z,986.23
2018-03-07T05:02:38.979Z,986.21
2018-03-07T05:03:59.942Z,986.23
2018-03-07T05:04:38.943Z,986.25
2018-03-07T05:05:38.952Z,986.26
2018-03-07T05:06:38.956Z,986.29
2018-03-07T05:07:38.961Z,986.23
2018-03-07T05:08:38.975Z,986.24
2018-03-07T05:10:00.010Z,986.21
2018-03-07T05:10:38.986Z,986.25
2018-03-07T05:11:39.064Z,986.23
2018-03-07T05:12:39.001Z,986.21
2018-03-07T05:13:39.015Z,986.23
2018-03-07T05:14:39.013Z,986.21
2018-03-07T05:16:00.046Z,986.22
2018-03-07T05:16:39.139Z,986.25
2018-03-07T05:17:39.040Z,986.23
2018-03-07T05:18:39.048Z,986.27
2018-03-07T05:19:39.111Z,986.25
2018-03-07T05:20:39.075Z,986.26
2018-03-07T05:22:00.104Z,986.28
2018-03-07T05:22:39.081Z,986.24
2018-03-07T05:23:39.097Z,986.25
2018-03-07T05:24:39.102Z,986.30
2018-03-07T05:25:39.105Z,986.26
2018-03-07T05:26:39.122Z,986.27
2018-03-07T05:28:00.143Z,986.30
2018-03-07T05:28:39.150Z,986.31
2018-03-07T05:29:39.200Z,986.26
2018-03-07T05:30:39.144Z,986.28
2018-03-07T05:31:39.165Z,986.28
2018-03-07T05:32:39.156Z,986.31
2018-03-07T05:34:00.181Z,986.30
2018-03-07T05:34:39.180Z,986.35
2018-03-07T05:35:39.177Z,986.31
2018-03-07T05:36:39.195Z,986.33
2018-03-07T05:37:39.199Z,986.31
2018-03-07T05:38:39.211Z,986.32
2018-03-07T05:40:00.226Z,986.30
2018-03-07T05:40:39.228Z,986.28
2018-03-07T05:41:39.231Z,986.29
2018-03-07T05:42:39.244Z,986.28
2018-03-07T05:43:39.251Z,986.32
2018-03-07T05:44:39.257Z,986.31
2018-03-07T05:46:00.267Z,986.34
2018-03-07T05:46:39.279Z,986.38
2018-03-07T05:47:39.287Z,986.35
2018-03-07T05:48:39.292Z,986.30
2018-03-07T05:49:39.292Z,986.35
2018-03-07T05:50:39.301Z,986.36
2018-03-07T05:52:00.333Z,986.43
2018-03-07T05:52:39.349Z,986.41
2018-03-07T05:53:39.329Z,986.47
2018-03-07T05:54:39.330Z,986.45
2018-03-07T05:55:39.338Z,986.47
2018-03-07T05:56:39.350Z,986.47
2018-03-07T05:58:00.361Z,986.53
2018-03-07T05:58:39.362Z,986.55
2018-03-07T05:59:39.370Z,986.49
2018-03-07T06:00:39.385Z,986.54
2018-03-07T06:01:39.385Z,986.52
2018-03-07T06:02:39.392Z,986.56
2018-03-07T06:04:00.410Z,986.59
2018-03-07T06:04:39.428Z,986.56
2018-03-07T06:05:39.418Z,986.59
2018-03-07T06:06:39.422Z,986.56
2018-03-07T06:07:39.440Z,986.59
2018-03-07T06:08:39.437Z,986.61
2018-03-07T06:10:00.454Z,986.58
2018-03-07T06:10:39.509Z,986.63
2018-03-07T06:11:39.479Z,986.61
2018-03-07T06:12:39.467Z,986.65
2018-03-07T06:13:39.473Z,986.62
2018-03-07T06:14:39.495Z,986.67
2018-03-07T06:16:00.534Z,986.66
2018-03-07T06:16:39.504Z,986.64
2018-03-07T06:17:39.508Z,986.67
2018-03-07T06:18:39.512Z,986.65
2018-03-07T06:19:39.523Z,986.65
2018-03-07T06:20:39.662Z,986.68
2018-03-07T06:22:00.549Z,986.72
2018-03-07T06:22:39.540Z,986.72
2018-03-07T06:23:39.554Z,986.76
2018-03-07T06:24:39.561Z,986.75
2018-03-07T06:25:39.572Z,986.75
2018-03-07T06:26:39.580Z,986.75
2018-03-07T06:28:00.594Z,986.77
2018-03-07T06:28:39.588Z,986.78
2018-03-07T06:29:39.597Z,986.79
2018-03-07T06:30:39.600Z,986.80
2018-03-07T06:31:39.604Z,986.84
2018-03-07T06:32:39.623Z,986.84
2018-03-07T06:34:00.637Z,986.84
2018-03-07T06:34:39.632Z,986.83
2018-03-07T06:35:39.644Z,986.85
2018-03-07T06:36:39.650Z,986.88
2018-03-07T06:37:39.677Z,986.93
2018-03-07T06:38:39.659Z,986.89
2018-03-07T06:40:00.790Z,986.94
2018-03-07T06:40:39.680Z,986.94
2018-03-07T06:41:39.685Z,986.99
2018-03-07T06:42:39.691Z,986.98
2018-03-07T06:43:39.713Z,986.99
2018-03-07T06:44:39.704Z,986.99
2018-03-07T06:46:00.724Z,986.99
2018-03-07T06:46:39.719Z,986.99
2018-03-07T06:47:39.750Z,987.00
2018-03-07T06:48:39.842Z,987.06
2018-03-07T06:49:39.746Z,987.06
2018-03-07T06:50:39.759Z,987.06
2018-03-07T06:52:00.783Z,987.07
2018-03-07T06:52:39.759Z,987.08
2018-03-07T06:53:39.772Z,987.09
2018-03-07T06:54:39.783Z,987.11
2018-03-07T06:55:39.787Z,987.10
2018-03-07T06:56:39.794Z,987.14
2018-03-07T06:58:00.811Z,987.14
2018-03-07T06:58:39.811Z,987.16
2018-03-07T06:59:39.812Z,987.10
2018-03-07T07:00:39.826Z,987.17
2018-03-07T07:01:39.863Z,987.15
2018-03-07T07:02:39.837Z,987.17
2018-03-07T07:04:00.864Z,987.23
2018-03-07T07:04:39.848Z,987.21
2018-03-07T07:05:39.861Z,987.24
2018-03-07T07:06:39.866Z,987.22
2018-03-07T07:07:39.872Z,987.19
2018-03-07T07:08:39.884Z,987.25
2018-03-07T07:10:00.901Z,987.29
2018-03-07T07:10:39.906Z,987.23
2018-03-07T07:11:39.951Z,987.29
2018-03-07T07:12:39.918Z,987.31
2018-03-07T07:13:39.928Z,987.35
2018-03-07T07:14:39.936Z,987.38
2018-03-07T07:16:00.995Z,987.40
2018-03-07T07:16:39.960Z,987.39
2018-03-07T07:17:39.968Z,987.42
2018-03-07T07:18:39.974Z,987.38
2018-03-07T07:19:39.991Z,987.41
2018-03-07T07:20:39.997Z,987.42
2018-03-07T07:22:01.017Z,987.43
2018-03-07T07:22:40.005Z,987.39
2018-03-07T07:23:40.016Z,987.42
2018-03-07T07:24:40.033Z,987.44
2018-03-07T07:25:40.050Z,987.47
2018-03-07T07:26:40.056Z,987.48
2018-03-07T07:28:01.070Z,987.47
2018-03-07T07:28:40.065Z,987.48
2018-03-07T07:29:40.075Z,987.48
2018-03-07T07:30:40.082Z,987.49
2018-03-07T07:31:40.100Z,987.51
2018-03-07T07:32:40.106Z,987.51
2018-03-07T07:34:01.138Z,987.48
2018-03-07T07:34:40.138Z,987.49
2018-03-07T07:35:40.140Z,987.48
2018-03-07T07:36:40.152Z,987.50
2018-03-07T07:37:40.165Z,987.51
2018-03-07T07:38:40.181Z,987.54
2018-03-07T07:40:01.203Z,987.57
2018-03-07T07:40:40.223Z,987.61
2018-03-07T07:41:40.218Z,987.65
2018-03-07T07:42:40.226Z,987.65
2018-03-07T07:43:40.234Z,987.62
2018-03-07T07:44:40.251Z,987.64
2018-03-07T07:46:01.268Z,987.65
2018-03-07T07:46:40.277Z,987.58
2018-03-07T07:47:40.288Z,987.62
2018-03-07T07:48:40.309Z,987.64
2018-03-07T07:49:40.309Z,987.59
2018-03-07T07:50:40.314Z,987.64
2018-03-07T07:52:01.349Z,987.67
2018-03-07T07:52:40.373Z,987.66
2018-03-07T07:53:40.373Z,987.65
2018-03-07T07:54:40.373Z,987.64
2018-03-07T07:55:40.409Z,987.68
2018-03-07T07:56:40.395Z,987.65
2018-03-07T07:58:01.429Z,987.65
2018-03-07T07:58:40.417Z,987.70
2018-03-07T07:59:40.480Z,987.68
2018-03-07T08:00:40.460Z,987.67
2018-03-07T08:01:40.462Z,987.69
2018-03-07T08:02:40.475Z,987.71
2018-03-07T08:04:01.504Z,987.73
2018-03-07T08:04:40.505Z,987.77
2018-03-07T08:05:40.525Z,987.74
2018-03-07T08:06:40.536Z,987.76
2018-03-07T08:07:40.536Z,987.72
2018-03-07T08:08:40.559Z,987.73
2018-03-07T08:10:01.596Z,987.72
2018-03-07T08:10:40.590Z,987.71
2018-03-07T08:11:40.603Z,987.78
2018-03-07T08:12:40.626Z,987.76
2018-03-07T08:13:40.632Z,987.75
2018-03-07T08:14:40.661Z,987.78
2018-03-07T08:16:01.689Z,987.79
2018-03-07T08:16:40.688Z,987.78
2018-03-07T08:17:40.696Z,987.78
2018-03-07T08:18:40.737Z,987.80
2018-03-07T08:19:40.728Z,987.79
2018-03-07T08:20:40.742Z,987.83
2018-03-07T08:22:01.772Z,987.77
2018-03-07T08:22:40.778Z,987.86
2018-03-07T08:23:40.785Z,987.81
2018-03-07T08:24:40.818Z,987.78
2018-03-07T08:25:40.821Z,987.81
2018-03-07T08:26:40.836Z,987.79
2018-03-07T08:28:01.864Z,987.85
2018-03-07T08:28:40.876Z,987.82
2018-03-07T08:29:40.880Z,987.83
2018-03-07T08:30:40.905Z,987.79
2018-03-07T08:31:40.928Z,987.80
2018-03-07T08:32:40.935Z,987.77
2018-03-07T08:34:01.979Z,987.80
2018-03-07T08:34:40.970Z,987.81
2018-03-07T08:35:40.989Z,987.83
2018-03-07T08:36:41.006Z,987.85
2018-03-07T08:37:41.027Z,987.79
2018-03-07T08:38:41.048Z,987.83
2018-03-07T08:40:02.081Z,987.84
2018-03-07T08:40:41.096Z,987.85
2018-03-07T08:41:41.127Z,987.84
2018-03-07T08:42:41.104Z,987.87
2018-03-07T08:43:41.151Z,987.85
2018-03-07T08:44:41.149Z,987.86
2018-03-07T08:46:02.299Z,987.85
2018-03-07T08:46:41.176Z,987.84
2018-03-07T08:47:41.213Z,987.82
2018-03-07T08:48:41.222Z,987.85
2018-03-07T08:49:41.241Z,987.82
2018-03-07T08:50:41.273Z,987.86
2018-03-07T08:52:02.286Z,987.87
2018-03-07T08:52:41.284Z,987.82
2018-03-07T08:53:41.316Z,987.85
2018-03-07T08:54:41.324Z,987.86
2018-03-07T08:55:41.336Z,987.88
2018-03-07T08:56:41.355Z,987.85
2018-03-07T08:58:02.411Z,987.88
2018-03-07T08:58:41.398Z,987.84
2018-03-07T08:59:41.410Z,987.88
2018-03-07T09:00:41.438Z,987.85
2018-03-07T09:01:41.532Z,987.84
2018-03-07T09:02:41.469Z,987.85
2018-03-07T09:04:02.498Z,987.85
2018-03-07T09:04:41.496Z,987.85
2018-03-07T09:05:41.542Z,987.83
2018-03-07T09:06:41.553Z,987.89
2018-03-07T09:07:41.565Z,987.90
2018-03-07T09:08:41.587Z,987.85
2018-03-07T09:10:02.621Z,987.89
2018-03-07T09:10:41.628Z,987.87
2018-03-07T09:11:41.707Z,987.86
2018-03-07T09:12:41.653Z,987.86
2018-03-07T09:13:41.672Z,987.90
2018-03-07T09:14:41.691Z,987.93
2018-03-07T09:16:02.730Z,987.91
2018-03-07T09:16:41.749Z,987.88
2018-03-07T09:17:41.768Z,987.88
2018-03-07T09:18:41.770Z,987.90
2018-03-07T09:19:41.784Z,987.93
2018-03-07T09:20:41.845Z,987.93
2018-03-07T09:22:02.851Z,987.90
2018-03-07T09:22:41.852Z,987.94
2018-03-07T09:23:41.965Z,987.91
2018-03-07T09:24:41.891Z,987.95
2018-03-07T09:25:41.912Z,987.91
2018-03-07T09:26:41.922Z,987.90
2018-03-07T09:28:03.003Z,987.91
2018-03-07T09:28:41.971Z,987.92
2018-03-07T09:29:42.003Z,987.88
2018-03-07T09:30:42.015Z,987.91
2018-03-07T09:31:42.029Z,987.89
2018-03-07T09:32:42.042Z,987.90
2018-03-07T09:34:03.075Z,987.92
2018-03-07T09:34:42.084Z,987.93
2018-03-07T09:35:42.104Z,987.93
2018-03-07T09:36:42.125Z,987.89
2018-03-07T09:37:42.147Z,987.89
2018-03-07T09:38:42.166Z,987.89
2018-03-07T09:40:03.200Z,987.88
2018-03-07T09:40:42.210Z,987.89
2018-03-07T09:41:42.224Z,987.90
2018-03-07T09:42:42.255Z,987.85
2018-03-07T09:43:42.267Z,987.87
2018-03-07T09:44:42.309Z,987.87
2018-03-07T09:46:03.319Z,987.88
2018-03-07T09:46:42.328Z,987.86
2018-03-07T09:47:42.340Z,987.80
2018-03-07T09:48:42.356Z,987.80
2018-03-07T09:49:42.395Z,987.81
2018-03-07T09:50:42.402Z,987.83
2018-03-07T09:52:03.452Z,987.77
2018-03-07T09:52:42.440Z,987.78
2018-03-07T09:53:42.493Z,987.77
2018-03-07T09:54:42.489Z,987.76
2018-03-07T09:55:42.512Z,987.74
2018-03-07T09:56:42.528Z,987.74
2018-03-07T09:58:03.579Z,987.74
2018-03-07T09:58:42.563Z,987.69
2018-03-07T09:59:42.592Z,987.68
2018-03-07T10:00:42.610Z,987.70
2018-03-07T10:01:42.629Z,987.74
2018-03-07T10:02:42.676Z,987.77
2018-03-07T10:04:03.695Z,987.77
2018-03-07T10:04:42.686Z,987.83
2018-03-07T10:05:42.712Z,987.80
2018-03-07T10:06:42.738Z,987.81
2018-03-07T10:07:42.755Z,987.81
2018-03-07T10:08:42.769Z,987.88
2018-03-07T10:10:03.807Z,987.90
2018-03-07T10:10:42.812Z,987.91
2018-03-07T10:11:42.827Z,987.93
2018-03-07T10:12:42.850Z,987.99
2018-03-07T10:13:42.872Z,988.01
2018-03-07T10:14:42.899Z,988.01
2018-03-07T10:16:03.949Z,988.05
2018-03-07T10:16:42.941Z,988.04
2018-03-07T10:17:42.993Z,988.06
2018-03-07T10:18:42.974Z,988.05
2018-03-07T10:19:43.010Z,988.05
2018-03-07T10:20:43.017Z,988.05
2018-03-07T10:22:04.050Z,988.06
2018-03-07T10:22:43.080Z,988.08
2018-03-07T10:23:43.080Z,988.09
2018-03-07T10:24:43.106Z,988.07
2018-03-07T10:25:43.121Z,988.10
2018-03-07T10:26:43.138Z,988.10
2018-03-07T10:28:04.187Z,988.10
2018-03-07T10:28:43.190Z,988.09
2018-03-07T10:29:43.210Z,988.11
2018-03-07T10:30:43.225Z,988.12
2018-03-07T10:31:43.242Z,988.12
2018-03-07T10:32:43.272Z,988.14
2018-03-07T10:34:04.307Z,988.13
2018-03-07T10:34:43.310Z,988.17
2018-03-07T10:35:43.330Z,988.18
2018-03-07T10:36:43.345Z,988.21
2018-03-07T10:37:43.384Z,988.25
2018-03-07T10:38:43.417Z,988.25
2018-03-07T10:40:04.426Z,988.32
2018-03-07T10:40:43.428Z,988.32
2018-03-07T10:41:43.468Z,988.32
2018-03-07T10:42:43.511Z,988.27
2018-03-07T10:43:43.507Z,988.29
2018-03-07T10:44:43.522Z,988.29
2018-03-07T10:46:04.556Z,988.32
2018-03-07T10:46:43.568Z,988.33
2018-03-07T10:47:43.578Z,988.35
2018-03-07T10:48:43.611Z,988.36
2018-03-07T10:49:43.626Z,988.33
2018-03-07T10:50:43.649Z,988.30
2018-03-07T10:52:04.681Z,988.37
2018-03-07T10:52:43.696Z,988.35
2018-03-07T10:53:43.715Z,988.36
2018-03-07T10:54:43.731Z,988.35
2018-03-07T10:55:43.764Z,988.37
2018-03-07T10:56:43.769Z,988.30
2018-03-07T10:58:04.812Z,988.34
2018-03-07T10:58:43.808Z,988.32
2018-03-07T10:59:43.903Z,988.33
2018-03-07T11:00:43.854Z,988.31
2018-03-07T11:01:43.877Z,988.33
2018-03-07T11:02:43.899Z,988.33
2018-03-07T11:04:04.936Z,988.32
2018-03-07T11:04:43.987Z,988.33
2018-03-07T11:05:43.958Z,988.35
2018-03-07T11:06:43.981Z,988.38
2018-03-07T11:07:44.020Z,988.38
2018-03-07T11:08:44.033Z,988.37
2018-03-07T11:10:05.068Z,988.38
2018-03-07T11:10:44.083Z,988.28
2018-03-07T11:11:44.145Z,988.31
2018-03-07T11:12:44.112Z,988.36
2018-03-07T11:13:44.151Z,988.33
2018-03-07T11:14:44.162Z,988.35
2018-03-07T11:16:05.229Z,988.37
2018-03-07T11:16:44.185Z,988.40
2018-03-07T11:17:44.207Z,988.39
2018-03-07T11:18:44.239Z,988.34
2018-03-07T11:19:44.264Z,988.39
2018-03-07T11:20:44.284Z,988.39
2018-03-07T11:22:05.322Z,988.41
2018-03-07T11:22:44.314Z,988.41
2018-03-07T11:23:44.335Z,988.45
2018-03-07T11:24:44.355Z,988.39
2018-03-07T11:25:44.373Z,988.42
2018-03-07T11:26:44.413Z,988.43
2018-03-07T11:28:05.446Z,988.34
2018-03-07T11:28:44.447Z,988.33
2018-03-07T11:29:44.464Z,988.37
2018-03-07T11:30:44.527Z,988.38
2018-03-07T11:31:44.529Z,988.29
2018-03-07T11:32:44.520Z,988.36
2018-03-07T11:34:05.562Z,988.34
2018-03-07T11:34:44.574Z,988.33
2018-03-07T11:35:44.592Z,988.33
2018-03-07T11:36:44.631Z,988.32
2018-03-07T11:37:44.618Z,988.32
2018-03-07T11:38:44.733Z,988.25
2018-03-07T11:40:05.673Z,988.28
2018-03-07T11:40:44.680Z,988.29
2018-03-07T11:41:44.695Z,988.30
2018-03-07T11:42:44.734Z,988.32
2018-03-07T11:43:44.750Z,988.27
2018-03-07T11:44:44.775Z,988.29
2018-03-07T11:46:05.795Z,988.25
2018-03-07T11:46:44.809Z,988.29
2018-03-07T11:47:44.812Z,988.24
2018-03-07T11:48:44.923Z,988.24
2018-03-07T11:49:44.842Z,988.22
2018-03-07T11:50:44.864Z,988.25
2018-03-07T11:52:05.905Z,988.29
2018-03-07T11:52:44.918Z,988.29
2018-03-07T11:53:44.946Z,988.30
2018-03-07T11:54:44.949Z,988.26
2018-03-07T11:55:44.970Z,988.30
2018-03-07T11:56:44.982Z,988.29
2018-03-07T11:58:06.022Z,988.28
2018-03-07T11:58:45.026Z,988.30
2018-03-07T11:59:45.041Z,988.29
2018-03-07T12:00:45.084Z,988.28
2018-03-07T12:01:45.082Z,988.26
2018-03-07T12:02:45.119Z,988.28
2018-03-07T12:04:06.154Z,988.27
2018-03-07T12:04:45.149Z,988.28
2018-03-07T12:05:45.266Z,988.29
2018-03-07T12:06:45.179Z,988.22
2018-03-07T12:07:45.212Z,988.20
2018-03-07T12:08:45.234Z,988.21
2018-03-07T12:10:06.259Z,988.23
2018-03-07T12:10:45.286Z,988.18
2018-03-07T12:11:45.284Z,988.17
2018-03-07T12:12:45.310Z,988.19
2018-03-07T12:13:45.328Z,988.18
2018-03-07T12:14:45.361Z,988.19
2018-03-07T12:16:06.379Z,988.20
2018-03-07T12:16:45.391Z,988.17
2018-03-07T12:17:45.423Z,988.13
2018-03-07T12:18:45.423Z,988.07
2018-03-07T12:19:45.447Z,988.09
2018-03-07T12:20:45.528Z,988.12
2018-03-07T12:22:06.621Z,988.11
2018-03-07T12:22:45.496Z,988.10
2018-03-07T12:23:45.522Z,988.11
2018-03-07T12:24:45.555Z,988.12
2018-03-07T12:25:45.574Z,988.05
2018-03-07T12:26:45.577Z,988.05
2018-03-07T12:28:06.615Z,988.07
2018-03-07T12:28:45.618Z,988.01